Time;durP1;ratioP1;P1;durP2;ratioP2;P2;SDS_P1;SDS_P2;PMS_P1;PMS_P2;Temp;Humidity;BMP_temperature;BMP_pressure;BME280_temperature;BME280_humidity;BME280_pressure;Samples;Min_cycle;Max_cycle;Signal;HPM_P1;HPM_P2
2021/03/02 00:01:59;;;;;;;61.92;20.60;;;2.90;96.90;;;;;;5029599;28;20120;-62
2021/03/02 00:04:27;;;;;;;54.65;21.20;;;2.80;97.20;;;;;;5027541;28;20092;-61
2021/03/02 00:06:54;;;;;;;60.75;20.08;;;2.80;97.50;;;;;;5027299;28;20041;-61
2021/03/02 00:09:21;;;;;;;59.22;20.77;;;2.80;97.50;;;;;;5028600;28;20072;-61
2021/03/02 00:11:50;;;;;;;55.00;20.55;;;2.80;97.50;;;;;;5030806;28;20041;-61
2021/03/02 00:14:20;;;;;;;61.60;21.08;;;2.70;97.30;;;;;;5029394;28;20055;-61
2021/03/02 00:17:01;;;;;;;60.15;21.98;;;2.70;97.10;;;;;;5025304;28;20057;-61
2021/03/02 00:19:36;;;;;;;61.25;20.90;;;2.70;97.50;;;;;;5029853;28;20160;-61
2021/03/02 00:22:20;;;;;;;58.40;21.10;;;2.60;97.50;;;;;;5019472;28;20057;-61
2021/03/02 00:24:53;;;;;;;59.60;20.58;;;2.50;96.50;;;;;;5031110;28;20041;-61
2021/03/02 00:27:22;;;;;;;60.28;20.30;;;2.50;97.40;;;;;;5017560;28;20055;-61
2021/03/02 00:29:50;;;;;;;65.53;22.40;;;2.50;97.80;;;;;;5027654;28;20042;-61
2021/03/02 00:32:20;;;;;;;63.70;22.40;;;2.50;97.90;;;;;;5027595;28;20099;-61
2021/03/02 00:34:48;;;;;;;58.42;21.83;;;2.50;98.30;;;;;;5027605;28;20080;-61
2021/03/02 00:37:15;;;;;;;67.15;21.75;;;2.40;98.40;;;;;;5027000;28;20081;-61
2021/03/02 00:39:42;;;;;;;58.53;21.13;;;2.40;98.90;;;;;;5020704;28;20112;-61
2021/03/02 00:42:09;;;;;;;56.47;20.33;;;2.40;98.90;;;;;;5022926;28;20061;-61
2021/03/02 00:44:36;;;;;;;62.00;20.80;;;2.40;98.70;;;;;;5027321;28;20041;-61
2021/03/02 00:47:03;;;;;;;54.92;19.88;;;2.40;98.50;;;;;;5029201;28;20496;-61
2021/03/02 00:49:30;;;;;;;62.35;20.95;;;2.40;98.10;;;;;;5013282;28;20041;-61
2021/03/02 00:51:56;;;;;;;53.28;19.92;;;2.30;98.30;;;;;;5032132;28;20041;-61
2021/03/02 00:54:23;;;;;;;57.70;20.65;;;2.30;98.20;;;;;;5028470;28;20045;-61
2021/03/02 00:56:50;;;;;;;64.30;20.85;;;2.30;98.00;;;;;;5030148;28;20055;-61
2021/03/02 00:59:19;;;;;;;58.15;19.02;;;2.30;98.20;;;;;;5033051;28;20425;-61
2021/03/02 01:01:47;;;;;;;50.80;20.95;;;2.30;98.30;;;;;;5030096;28;20049;-62
2021/03/02 01:04:14;;;;;;;58.50;18.98;;;2.20;98.30;;;;;;5029071;28;20152;-61
2021/03/02 01:06:41;;;;;;;53.97;20.15;;;2.20;98.20;;;;;;5030411;28;20515;-61
2021/03/02 01:09:09;;;;;;;50.60;19.15;;;2.20;98.00;;;;;;5030210;28;20077;-61
2021/03/02 01:11:40;;;;;;;55.80;19.60;;;2.20;97.90;;;;;;5029541;28;20424;-61
2021/03/02 01:14:08;;;;;;;49.85;18.27;;;2.20;98.20;;;;;;5031301;28;20481;-61
2021/03/02 01:16:35;;;;;;;56.83;18.88;;;2.10;98.00;;;;;;5032888;28;20121;-61
2021/03/02 01:19:02;;;;;;;52.38;18.55;;;2.10;98.30;;;;;;5031785;28;20125;-61
2021/03/02 01:21:29;;;;;;;50.17;19.17;;;2.10;98.60;;;;;;5032373;28;20046;-62
2021/03/02 01:23:55;;;;;;;49.25;18.15;;;2.10;98.50;;;;;;5031833;28;20531;-61
2021/03/02 01:26:22;;;;;;;46.42;17.25;;;2.00;98.40;;;;;;5029778;28;20079;-62
2021/03/02 01:28:49;;;;;;;50.25;17.33;;;2.00;98.80;;;;;;5030836;28;20045;-61
2021/03/02 01:31:16;;;;;;;53.53;16.75;;;2.00;99.10;;;;;;5032428;28;20447;-61
2021/03/02 01:33:42;;;;;;;42.40;17.05;;;2.00;99.20;;;;;;5031574;28;20547;-61
2021/03/02 01:36:09;;;;;;;54.22;18.42;;;2.00;99.30;;;;;;5032505;28;20049;-61
2021/03/02 01:38:36;;;;;;;48.33;16.25;;;2.00;99.30;;;;;;5026061;28;20033;-61
2021/03/02 01:41:02;;;;;;;53.85;17.95;;;2.00;99.40;;;;;;5031905;28;20037;-63
2021/03/02 01:43:36;;;;;;;50.45;17.52;;;2.00;99.70;;;;;;5031926;28;20052;-61
2021/03/02 01:46:04;;;;;;;51.42;19.08;;;1.90;99.70;;;;;;5030588;28;20377;-61
2021/03/02 01:48:39;;;;;;;53.72;18.08;;;1.90;99.60;;;;;;5024276;28;20047;-61
2021/03/02 01:51:08;;;;;;;51.15;19.27;;;1.90;99.50;;;;;;5027629;28;20464;-61
2021/03/02 01:53:34;;;;;;;60.20;19.45;;;1.80;99.40;;;;;;5029983;28;20052;-61
2021/03/02 01:56:01;;;;;;;50.38;18.45;;;1.80;99.90;;;;;;5031571;28;20037;-61
2021/03/02 01:58:29;;;;;;;53.00;18.38;;;1.80;99.90;;;;;;5031954;28;20425;-61
2021/03/02 02:00:59;;;;;;;48.47;17.30;;;1.80;99.90;;;;;;5032061;28;20052;-61
2021/03/02 02:03:50;;;;;;;57.05;20.80;;;1.80;99.90;;;;;;5027140;28;20049;-61
2021/03/02 02:06:25;;;;;;;59.25;18.70;;;1.80;99.90;;;;;;5044472;28;20408;-61
2021/03/02 02:08:57;;;;;;;55.13;19.20;;;1.80;99.90;;;;;;5029025;28;20049;-61
2021/03/02 02:11:42;;;;;;;49.67;18.33;;;1.70;99.90;;;;;;5033734;28;20045;-61
2021/03/02 02:14:18;;;;;;;46.80;17.95;;;1.70;99.90;;;;;;5030966;28;20048;-61
2021/03/02 02:16:50;;;;;;;52.15;18.40;;;1.70;99.90;;;;;;5028977;28;20148;-61
2021/03/02 02:19:55;;;;;;;51.87;19.87;;;1.70;99.70;;;;;;5031299;28;20056;-61
2021/03/02 02:22:42;;;;;;;47.35;16.95;;;1.70;99.80;;;;;;5030717;28;20496;-61
2021/03/02 02:25:41;;;;;;;46.60;17.55;;;1.70;99.60;;;;;;5028315;28;20048;-61
2021/03/02 02:28:09;;;;;;;46.03;16.30;;;1.60;99.50;;;;;;5028244;28;20540;-63
2021/03/02 02:30:38;;;;;;;51.45;17.73;;;1.60;99.90;;;;;;5031022;28;20384;-61
2021/03/02 02:33:08;;;;;;;43.63;16.65;;;1.60;99.80;;;;;;5031939;28;20053;-61
2021/03/02 02:35:39;;;;;;;38.97;14.98;;;1.60;99.90;;;;;;5030145;28;20041;-61
2021/03/02 02:38:09;;;;;;;49.15;16.30;;;1.60;99.80;;;;;;5024034;28;20046;-61
2021/03/02 02:40:37;;;;;;;37.95;15.05;;;1.50;99.70;;;;;;5025825;28;20045;-61
2021/03/02 02:43:06;;;;;;;40.78;14.32;;;1.50;99.90;;;;;;5030514;28;20080;-61
2021/03/02 02:45:33;;;;;;;42.53;15.10;;;1.50;99.90;;;;;;5027860;28;20060;-61
2021/03/02 02:48:00;;;;;;;41.72;14.15;;;1.50;99.90;;;;;;5029162;28;20061;-61
2021/03/02 02:50:28;;;;;;;35.88;14.07;;;1.50;99.90;;;;;;5028740;28;20041;-61
2021/03/02 02:52:55;;;;;;;43.05;16.05;;;1.40;99.90;;;;;;5030954;28;20052;-61
2021/03/02 02:55:40;;;;;;;40.83;15.02;;;1.40;99.90;;;;;;5022019;28;20038;-61
2021/03/02 02:58:09;;;;;;;40.17;14.93;;;1.40;99.90;;;;;;5029187;28;20120;-61
2021/03/02 03:00:37;;;;;;;36.75;14.60;;;1.40;99.90;;;;;;5030972;28;20059;-61
2021/03/02 03:03:08;;;;;;;38.65;15.38;;;1.40;99.90;;;;;;5031384;28;20037;-61
2021/03/02 03:05:36;;;;;;;41.45;13.90;;;1.40;99.90;;;;;;5029710;28;20069;-61
2021/03/02 03:08:10;;;;;;;34.17;14.23;;;1.40;99.90;;;;;;5028951;28;20045;-61
2021/03/02 03:10:37;;;;;;;40.58;15.05;;;1.40;99.90;;;;;;5027669;28;20056;-61
2021/03/02 03:13:07;;;;;;;41.08;14.82;;;1.30;99.70;;;;;;5028673;28;20042;-61
2021/03/02 03:15:35;;;;;;;37.63;14.70;;;1.30;99.90;;;;;;5030443;28;20046;-61
2021/03/02 03:18:10;;;;;;;40.15;15.00;;;1.30;99.90;;;;;;5027980;28;20084;-61
2021/03/02 03:20:38;;;;;;;38.45;14.40;;;1.30;99.90;;;;;;5028106;28;20117;-61
2021/03/02 03:23:06;;;;;;;45.42;16.30;;;1.20;99.90;;;;;;5029396;28;20037;-61
2021/03/02 03:25:34;;;;;;;33.65;13.68;;;1.10;99.90;;;;;;5012022;28;20084;-61
2021/03/02 03:28:04;;;;;;;42.50;14.52;;;1.10;99.90;;;;;;5028526;28;20128;-61
2021/03/02 03:30:34;;;;;;;39.25;13.63;;;1.20;99.90;;;;;;5030405;28;20029;-61
2021/03/02 03:33:04;;;;;;;38.20;13.90;;;1.20;99.90;;;;;;5030965;28;20060;-61
2021/03/02 03:35:32;;;;;;;32.47;13.85;;;1.20;99.90;;;;;;5031701;28;20045;-61
2021/03/02 03:37:59;;;;;;;36.03;13.15;;;1.20;99.90;;;;;;5028886;28;20045;-61
2021/03/02 03:40:25;;;;;;;38.90;13.32;;;1.20;99.90;;;;;;5030187;28;20056;-61
2021/03/02 03:42:52;;;;;;;32.60;12.50;;;1.20;99.90;;;;;;5010532;28;20045;-61
2021/03/02 03:45:18;;;;;;;31.30;11.90;;;1.10;99.90;;;;;;5029916;28;20077;-61
2021/03/02 03:47:45;;;;;;;35.47;13.25;;;1.20;99.90;;;;;;5029084;28;20187;-61
2021/03/02 03:50:14;;;;;;;39.20;13.52;;;1.20;99.90;;;;;;5026837;28;20053;-61
2021/03/02 03:52:45;;;;;;;32.80;12.82;;;1.10;99.90;;;;;;5028890;28;20053;-61
2021/03/02 03:55:14;;;;;;;31.20;12.13;;;1.20;99.90;;;;;;5028641;28;20107;-61
2021/03/02 03:57:41;;;;;;;33.45;11.60;;;1.10;99.90;;;;;;5024714;28;20049;-61
2021/03/02 04:00:08;;;;;;;38.05;12.35;;;1.10;99.90;;;;;;5030139;28;20043;-61
2021/03/02 04:02:36;;;;;;;33.38;12.63;;;1.10;99.90;;;;;;5024467;28;20041;-61
2021/03/02 04:05:05;;;;;;;34.28;12.63;;;1.10;99.90;;;;;;5030254;28;20056;-61
2021/03/02 04:07:33;;;;;;;33.13;12.40;;;1.10;99.90;;;;;;5021782;28;20050;-61
2021/03/02 04:10:01;;;;;;;29.60;12.27;;;1.10;99.90;;;;;;5038432;28;20104;-61
2021/03/02 04:12:39;;;;;;;32.08;12.45;;;1.10;99.90;;;;;;5030382;28;20397;-61
2021/03/02 04:15:26;;;;;;;32.10;11.93;;;1.00;99.90;;;;;;5029700;28;20114;-61
2021/03/02 04:17:55;;;;;;;32.65;11.07;;;1.00;99.90;;;;;;5026710;28;20103;-61
2021/03/02 04:20:22;;;;;;;36.55;11.52;;;1.00;99.90;;;;;;5028469;28;20042;-61
2021/03/02 04:22:48;;;;;;;36.65;11.77;;;1.00;99.90;;;;;;5029531;28;20139;-61
2021/03/02 04:25:15;;;;;;;30.90;12.73;;;1.00;99.90;;;;;;5032014;28;20041;-60
2021/03/02 04:27:42;;;;;;;34.88;13.05;;;0.90;99.90;;;;;;5031098;28;20532;-61
2021/03/02 04:30:10;;;;;;;33.20;10.80;;;0.90;99.90;;;;;;5032266;28;20416;-61
2021/03/02 04:32:36;;;;;;;29.45;11.80;;;0.90;99.90;;;;;;5031021;28;20040;-61
2021/03/02 04:35:04;;;;;;;35.15;12.70;;;0.80;99.90;;;;;;5032030;28;20132;-60
2021/03/02 04:37:30;;;;;;;37.55;13.52;;;0.80;99.90;;;;;;5048563;28;20048;-61
2021/03/02 04:39:57;;;;;;;35.67;12.75;;;0.80;99.90;;;;;;5031565;28;20508;-61
2021/03/02 04:42:23;;;;;;;37.58;12.40;;;0.70;99.90;;;;;;5033619;28;20046;-61
2021/03/02 04:44:50;;;;;;;36.58;13.82;;;0.70;99.90;;;;;;5032461;28;20054;-61
2021/03/02 04:47:16;;;;;;;39.17;14.23;;;0.60;99.90;;;;;;5029001;28;20046;-61
2021/03/02 04:49:43;;;;;;;43.05;15.15;;;0.70;99.90;;;;;;5031538;28;20111;-61
2021/03/02 04:52:09;;;;;;;38.53;13.30;;;0.70;99.90;;;;;;5032979;28;20095;-61
2021/03/02 04:54:36;;;;;;;47.83;15.23;;;0.70;99.90;;;;;;5031951;28;20471;-61
2021/03/02 04:57:02;;;;;;;49.92;17.98;;;0.70;99.90;;;;;;5031350;28;20144;-61
2021/03/02 04:59:29;;;;;;;46.47;18.60;;;0.70;99.90;;;;;;5025258;28;20065;-61
2021/03/02 05:01:55;;;;;;;41.08;15.93;;;0.70;99.90;;;;;;5028099;28;20042;-61
2021/03/02 05:04:22;;;;;;;40.40;14.88;;;0.70;99.90;;;;;;5021645;28;20038;-61
2021/03/02 05:06:49;;;;;;;40.53;15.38;;;0.70;99.90;;;;;;5032448;28;20064;-61
2021/03/02 05:09:15;;;;;;;36.05;15.02;;;0.70;99.90;;;;;;5031453;28;20042;-61
2021/03/02 05:11:41;;;;;;;36.22;14.30;;;0.70;99.90;;;;;;5031022;28;20046;-61
2021/03/02 05:14:08;;;;;;;41.80;15.55;;;0.70;99.90;;;;;;5033746;28;20049;-61
2021/03/02 05:16:35;;;;;;;42.17;14.05;;;0.70;99.90;;;;;;5032016;28;20075;-61
2021/03/02 05:19:02;;;;;;;35.90;13.45;;;0.70;99.90;;;;;;5033343;28;20107;-61
2021/03/02 05:21:28;;;;;;;35.95;13.88;;;0.70;99.90;;;;;;5026957;28;20517;-61
2021/03/02 05:23:54;;;;;;;39.30;15.15;;;0.60;99.90;;;;;;5025225;28;20049;-61
2021/03/02 05:26:21;;;;;;;40.95;14.85;;;0.60;99.90;;;;;;5031609;28;20100;-61
2021/03/02 05:28:48;;;;;;;38.90;14.40;;;0.50;99.90;;;;;;5031336;28;20048;-61
2021/03/02 05:31:18;;;;;;;40.97;13.93;;;0.50;99.90;;;;;;5030801;28;20037;-61
2021/03/02 05:33:45;;;;;;;34.63;14.02;;;0.50;99.90;;;;;;5024362;28;20505;-61
2021/03/02 05:36:12;;;;;;;39.63;14.68;;;0.50;99.90;;;;;;5027700;28;20069;-61
2021/03/02 05:38:39;;;;;;;37.38;13.23;;;0.60;99.90;;;;;;5032353;28;20041;-61
2021/03/02 05:41:08;;;;;;;34.85;13.77;;;0.60;99.90;;;;;;5029871;28;20030;-61
2021/03/02 05:43:39;;;;;;;38.75;14.82;;;0.60;99.90;;;;;;5027468;28;20060;-61
2021/03/02 05:46:06;;;;;;;35.38;12.38;;;0.60;99.90;;;;;;5030280;28;20095;-61
2021/03/02 05:48:34;;;;;;;39.13;14.40;;;0.60;99.90;;;;;;5031670;28;20049;-61
2021/03/02 05:51:01;;;;;;;29.98;12.82;;;0.60;99.90;;;;;;5021486;28;20049;-61
2021/03/02 05:53:28;;;;;;;42.38;15.13;;;0.70;99.90;;;;;;5028910;28;20056;-61
2021/03/02 05:55:54;;;;;;;31.60;13.05;;;0.70;99.90;;;;;;5032622;28;20061;-61
2021/03/02 05:58:22;;;;;;;39.63;14.95;;;0.70;99.90;;;;;;5031740;28;20038;-61
2021/03/02 06:00:49;;;;;;;34.90;12.95;;;0.70;99.90;;;;;;5031842;28;20042;-61
2021/03/02 06:03:15;;;;;;;38.00;13.68;;;0.60;99.90;;;;;;5030642;28;20480;-61
2021/03/02 06:05:43;;;;;;;34.97;14.38;;;0.60;99.90;;;;;;5029935;28;20111;-61
2021/03/02 06:08:10;;;;;;;39.10;12.80;;;0.60;99.90;;;;;;5031835;28;20041;-61
2021/03/02 06:10:36;;;;;;;34.92;13.77;;;0.70;99.90;;;;;;5029656;28;20041;-61
2021/03/02 06:13:03;;;;;;;36.72;13.75;;;0.70;99.90;;;;;;5029115;28;20790;-61
2021/03/02 06:15:30;;;;;;;39.88;13.88;;;0.80;99.90;;;;;;5030574;28;20068;-61
2021/03/02 06:18:14;;;;;;;36.40;12.10;;;0.80;99.90;;;;;;5013885;28;20381;-61
2021/03/02 06:20:42;;;;;;;28.23;11.60;;;0.80;99.90;;;;;;5000970;28;20050;-61
2021/03/02 06:23:26;;;;;;;33.00;12.23;;;0.90;99.90;;;;;;5029853;28;20052;-61
2021/03/02 06:26:13;;;;;;;34.67;12.13;;;1.00;99.90;;;;;;5029844;28;20049;-61
2021/03/02 06:28:44;;;;;;;40.58;13.05;;;1.00;99.90;;;;;;5032691;28;20047;-61
2021/03/02 06:31:31;;;;;;;31.67;12.18;;;1.00;99.90;;;;;;5030724;28;20041;-61
2021/03/02 06:34:05;;;;;;;36.80;13.45;;;1.10;99.90;;;;;;5030559;28;20061;-62
2021/03/02 06:36:32;;;;;;;40.67;15.73;;;1.20;99.90;;;;;;5028847;28;20041;-61
2021/03/02 06:39:22;;;;;;;42.05;15.82;;;1.30;99.90;;;;;;5030158;28;20041;-61
2021/03/02 06:41:51;;;;;;;43.83;16.17;;;1.30;99.90;;;;;;5027664;28;20050;-61
2021/03/02 06:44:17;;;;;;;35.92;13.90;;;1.40;99.90;;;;;;5030405;28;20038;-62
2021/03/02 06:46:45;;;;;;;36.25;14.23;;;1.50;99.90;;;;;;5026707;28;20049;-61
2021/03/02 06:49:12;;;;;;;34.38;13.52;;;1.50;99.90;;;;;;5027448;28;20128;-61
2021/03/02 06:51:39;;;;;;;50.10;18.27;;;1.60;99.90;;;;;;5029194;28;20401;-61
2021/03/02 06:54:16;;;;;;;47.38;19.95;;;1.70;99.90;;;;;;5012013;28;20049;-61
2021/03/02 06:56:44;;;;;;;41.47;16.50;;;1.80;99.90;;;;;;5030159;28;20116;-61
2021/03/02 06:59:18;;;;;;;56.60;21.40;;;1.90;99.90;;;;;;5029773;28;20129;-62
2021/03/02 07:01:47;;;;;;;36.88;16.73;;;2.00;99.90;;;;;;5030005;28;20049;-61
2021/03/02 07:04:17;;;;;;;42.60;16.83;;;2.20;99.90;;;;;;5028902;28;20095;-61
2021/03/02 07:06:44;;;;;;;72.25;28.30;;;2.30;99.90;;;;;;5010901;28;20057;-61
2021/03/02 07:09:13;;;;;;;60.88;26.17;;;2.30;99.90;;;;;;5018845;28;20057;-62
2021/03/02 07:11:40;;;;;;;39.70;17.15;;;2.40;99.90;;;;;;5027390;28;20041;-62
2021/03/02 07:14:10;;;;;;;39.72;15.95;;;2.50;99.90;;;;;;5028945;28;20073;-61
2021/03/02 07:16:42;;;;;;;36.58;14.75;;;2.70;99.90;;;;;;5028278;28;20056;-61
2021/03/02 07:19:15;;;;;;;43.85;14.10;;;2.80;99.90;;;;;;5038772;28;20127;-61
2021/03/02 07:21:44;;;;;;;35.53;13.47;;;2.90;99.90;;;;;;5025810;28;20820;-62
2021/03/02 07:24:13;;;;;;;35.75;13.75;;;3.00;99.90;;;;;;5030361;28;20286;-62
2021/03/02 07:26:44;;;;;;;33.28;12.65;;;3.20;99.90;;;;;;5027660;28;20045;-61
2021/03/02 07:29:11;;;;;;;35.92;12.07;;;3.30;99.90;;;;;;5029859;28;20389;-61
2021/03/02 07:31:39;;;;;;;35.40;12.07;;;3.40;99.90;;;;;;5025512;28;20386;-61
2021/03/02 07:34:09;;;;;;;33.63;13.68;;;3.50;99.90;;;;;;5021782;28;20132;-62
2021/03/02 07:36:43;;;;;;;35.65;13.00;;;3.70;99.90;;;;;;5020765;28;20129;-62
2021/03/02 07:39:16;;;;;;;37.67;14.52;;;3.80;99.90;;;;;;5030140;28;20061;-62
2021/03/02 07:41:46;;;;;;;33.60;12.02;;;4.00;99.90;;;;;;5031077;28;20040;-62
2021/03/02 07:44:13;;;;;;;39.28;12.95;;;4.10;99.90;;;;;;5027529;28;20045;-62
2021/03/02 07:46:40;;;;;;;33.72;11.85;;;4.20;99.90;;;;;;5023854;28;20037;-61
2021/03/02 07:49:22;;;;;;;29.88;11.75;;;4.30;99.90;;;;;;5027245;28;20038;-61
2021/03/02 07:52:01;;;;;;;27.65;10.48;;;4.50;99.90;;;;;;5011797;28;20627;-62
2021/03/02 07:54:29;;;;;;;27.77;10.93;;;4.60;99.90;;;;;;5037195;28;20042;-62
2021/03/02 07:57:15;;;;;;;32.17;11.63;;;4.70;99.90;;;;;;5041666;28;20041;-62
2021/03/02 07:59:43;;;;;;;33.58;11.90;;;4.90;99.90;;;;;;5027863;28;20053;-62
2021/03/02 08:02:17;;;;;;;34.00;10.75;;;5.00;99.90;;;;;;5020286;28;20049;-62
2021/03/02 08:04:46;;;;;;;31.95;10.77;;;5.10;99.90;;;;;;5020492;28;20077;-62
2021/03/02 08:07:24;;;;;;;31.13;10.05;;;5.30;99.90;;;;;;5023728;28;20056;-62
2021/03/02 08:09:55;;;;;;;26.70;10.55;;;5.40;99.90;;;;;;5028720;28;20045;-62
2021/03/02 08:12:35;;;;;;;28.52;10.82;;;5.50;99.90;;;;;;5028000;28;20617;-63
2021/03/02 08:15:22;;;;;;;27.42;9.02;;;5.60;99.90;;;;;;5028915;28;20116;-63
2021/03/02 08:17:49;;;;;;;25.00;8.35;;;5.80;99.90;;;;;;5030614;28;20049;-62
2021/03/02 08:20:16;;;;;;;21.27;8.80;;;6.00;99.40;;;;;;5030071;28;20621;-62
2021/03/02 08:22:42;;;;;;;24.13;8.88;;;6.00;99.00;;;;;;5027352;28;20052;-62
2021/03/02 08:25:11;;;;;;;25.35;8.80;;;6.20;98.90;;;;;;5026787;28;20158;-62
2021/03/02 08:27:48;;;;;;;24.83;8.13;;;6.40;98.50;;;;;;5025030;28;20810;-63
2021/03/02 08:30:36;;;;;;;19.45;7.82;;;6.50;97.60;;;;;;5024552;28;20056;-63
2021/03/02 08:33:05;;;;;;;22.80;8.02;;;6.60;97.10;;;;;;5029929;28;20061;-62
2021/03/02 08:35:35;;;;;;;24.50;8.00;;;6.80;96.40;;;;;;5028059;28;20057;-63
2021/03/02 08:38:04;;;;;;;19.05;6.55;;;7.00;96.10;;;;;;5025358;28;20444;-62
2021/03/02 08:40:31;;;;;;;22.38;7.40;;;7.10;95.20;;;;;;5027914;28;20041;-62
2021/03/02 08:43:14;;;;;;;14.57;6.57;;;7.20;94.90;;;;;;5023610;28;20057;-62
2021/03/02 08:45:52;;;;;;;25.70;6.82;;;7.40;94.20;;;;;;5028596;28;20037;-63
2021/03/02 08:48:35;;;;;;;19.00;6.70;;;7.50;93.90;;;;;;5023053;28;20052;-62
2021/03/02 08:51:08;;;;;;;21.50;7.68;;;7.60;93.10;;;;;;5022115;28;20045;-62
2021/03/02 08:53:40;;;;;;;18.15;7.18;;;7.70;93.00;;;;;;5028540;28;20041;-62
2021/03/02 08:56:19;;;;;;;23.02;7.47;;;7.80;92.70;;;;;;5026765;28;20053;-62
2021/03/02 08:58:49;;;;;;;18.45;6.68;;;7.90;92.30;;;;;;5024505;28;20049;-62
2021/03/02 09:01:26;;;;;;;16.85;5.97;;;8.00;91.30;;;;;;5027556;28;20034;-62
2021/03/02 09:04:14;;;;;;;18.42;6.78;;;8.10;91.30;;;;;;5028263;28;20033;-62
2021/03/02 09:06:45;;;;;;;16.52;6.88;;;8.20;90.60;;;;;;5019364;28;20132;-62
2021/03/02 09:09:13;;;;;;;17.63;7.40;;;8.40;90.40;;;;;;5025457;28;20050;-62
2021/03/02 09:11:44;;;;;;;18.50;6.88;;;8.50;90.20;;;;;;5030695;28;20045;-62
2021/03/02 09:14:13;;;;;;;16.17;6.60;;;8.50;90.20;;;;;;5028294;28;20500;-62
2021/03/02 09:16:48;;;;;;;22.27;7.88;;;8.70;89.70;;;;;;5027414;28;20512;-62
2021/03/02 09:19:17;;;;;;;19.30;6.63;;;8.90;89.20;;;;;;5024298;28;20501;-62
2021/03/02 09:21:45;;;;;;;16.85;6.40;;;9.10;87.30;;;;;;5030211;28;20775;-62
2021/03/02 09:24:14;;;;;;;18.02;7.57;;;9.20;87.70;;;;;;5024823;28;20045;-62
2021/03/02 09:26:49;;;;;;;20.17;7.10;;;9.40;86.40;;;;;;5021718;28;20454;-62
2021/03/02 09:29:16;;;;;;;23.02;7.20;;;9.50;84.10;;;;;;5026746;28;20095;-62
2021/03/02 09:31:43;;;;;;;21.02;6.55;;;9.70;84.30;;;;;;5025253;28;20492;-61
2021/03/02 09:34:10;;;;;;;23.13;7.88;;;9.70;83.50;;;;;;5026146;28;20554;-61
2021/03/02 09:36:38;;;;;;;19.05;6.93;;;9.90;81.50;;;;;;5017071;28;20057;-61
2021/03/02 09:39:22;;;;;;;22.33;7.82;;;9.80;81.60;;;;;;5021456;28;20119;-62
2021/03/02 09:41:50;;;;;;;22.75;7.20;;;9.90;81.10;;;;;;5016441;28;20504;-61
2021/03/02 09:44:22;;;;;;;23.35;8.10;;;9.90;80.60;;;;;;5024711;28;20697;-61
2021/03/02 09:46:49;;;;;;;21.52;7.28;;;10.00;80.60;;;;;;5026649;28;20061;-63
2021/03/02 09:49:32;;;;;;;18.45;6.80;;;10.20;80.70;;;;;;5025658;28;20052;-64
2021/03/02 09:51:58;;;;;;;20.65;7.10;;;10.40;79.10;;;;;;5023523;28;20702;-62
2021/03/02 09:54:25;;;;;;;18.45;8.02;;;10.50;78.60;;;;;;5019908;28;20099;-62
2021/03/02 09:56:59;;;;;;;22.45;8.45;;;10.60;78.70;;;;;;5021104;28;20049;-61
2021/03/02 09:59:26;;;;;;;20.25;7.05;;;10.80;77.90;;;;;;5024075;28;20041;-60
2021/03/02 10:01:53;;;;;;;19.70;7.32;;;11.00;75.90;;;;;;5022749;28;20045;-62
2021/03/02 10:04:20;;;;;;;18.02;7.05;;;11.00;74.80;;;;;;5016789;28;20042;-62
2021/03/02 10:06:48;;;;;;;21.48;8.38;;;11.10;75.10;;;;;;5029320;28;20034;-63
2021/03/02 10:09:25;;;;;;;18.90;8.27;;;11.30;74.20;;;;;;5029480;28;20659;-62
2021/03/02 10:12:13;;;;;;;19.10;7.82;;;11.40;74.30;;;;;;5024228;28;20046;-62
2021/03/02 10:14:41;;;;;;;22.95;7.68;;;11.50;73.00;;;;;;5024000;28;20055;-62
2021/03/02 10:17:08;;;;;;;20.05;7.47;;;11.70;72.20;;;;;;5028251;28;20107;-62
2021/03/02 10:19:45;;;;;;;19.40;8.25;;;11.80;72.20;;;;;;5027251;28;20053;-62
2021/03/02 10:22:13;;;;;;;21.75;8.35;;;11.90;71.80;;;;;;5025205;28;20045;-62
2021/03/02 10:24:41;;;;;;;17.73;7.55;;;12.00;71.50;;;;;;5023604;28;20175;-62
2021/03/02 10:27:17;;;;;;;19.77;8.13;;;12.20;71.30;;;;;;5024775;28;20037;-62
2021/03/02 10:29:45;;;;;;;22.60;8.32;;;12.20;70.00;;;;;;5027956;28;20053;-62
2021/03/02 10:32:12;;;;;;;21.27;8.77;;;12.20;70.00;;;;;;5027870;28;20045;-62
2021/03/02 10:34:41;;;;;;;20.45;7.70;;;12.40;69.90;;;;;;5027156;28;20072;-62
2021/03/02 10:37:10;;;;;;;20.95;8.13;;;12.50;69.90;;;;;;5018007;28;20143;-62
2021/03/02 10:39:38;;;;;;;19.23;9.45;;;12.60;69.00;;;;;;5016375;28;20083;-62
2021/03/02 10:42:06;;;;;;;19.33;7.68;;;12.80;68.80;;;;;;5020455;28;20053;-62
2021/03/02 10:44:32;;;;;;;18.27;8.23;;;12.90;67.70;;;;;;5026890;28;20041;-62
2021/03/02 10:46:59;;;;;;;21.83;8.18;;;13.10;67.70;;;;;;5018141;28;20501;-63
2021/03/02 10:49:25;;;;;;;18.77;7.88;;;13.20;66.80;;;;;;5014755;28;20812;-63
2021/03/02 10:51:53;;;;;;;20.70;7.15;;;13.20;66.30;;;;;;5027098;28;20056;-62
2021/03/02 10:54:19;;;;;;;18.08;7.30;;;13.20;66.90;;;;;;5020746;28;20057;-62
2021/03/02 10:56:46;;;;;;;18.52;7.80;;;13.30;67.10;;;;;;5021902;28;20061;-62
2021/03/02 10:59:13;;;;;;;24.67;8.63;;;13.50;67.40;;;;;;5018424;28;20120;-62
2021/03/02 11:01:39;;;;;;;21.60;8.70;;;13.80;67.50;;;;;;5024610;28;20087;-62
2021/03/02 11:04:08;;;;;;;18.15;7.57;;;14.00;65.50;;;;;;5025654;28;20047;-62
2021/03/02 11:06:34;;;;;;;18.48;7.03;;;14.10;63.90;;;;;;5023004;28;20409;-62
2021/03/02 11:09:03;;;;;;;13.30;5.03;;;14.20;61.30;;;;;;5021776;28;20061;-62
2021/03/02 11:11:30;;;;;;;15.85;5.15;;;14.30;58.60;;;;;;5016835;28;20041;-62
2021/03/02 11:13:57;;;;;;;13.50;5.00;;;14.30;57.20;;;;;;5018994;28;20044;-62
2021/03/02 11:16:24;;;;;;;13.88;5.22;;;14.40;56.70;;;;;;5026820;28;20099;-61
2021/03/02 11:18:53;;;;;;;21.02;7.10;;;14.60;56.60;;;;;;5023014;28;20045;-62
2021/03/02 11:21:20;;;;;;;10.48;4.38;;;14.70;55.60;;;;;;5024945;28;20044;-62
2021/03/02 11:23:47;;;;;;;13.98;5.45;;;14.80;53.30;;;;;;5023038;28;20594;-61
2021/03/02 11:26:13;;;;;;;13.18;5.10;;;14.90;53.00;;;;;;5023062;28;20064;-62
2021/03/02 11:28:40;;;;;;;18.13;6.53;;;14.60;54.00;;;;;;5027486;28;20045;-62
2021/03/02 11:31:07;;;;;;;14.65;5.80;;;14.70;54.50;;;;;;5026739;28;20045;-62
2021/03/02 11:33:34;;;;;;;14.90;5.40;;;14.80;55.00;;;;;;5026730;28;20069;-62
2021/03/02 11:36:01;;;;;;;14.80;5.90;;;14.80;55.10;;;;;;5023869;28;20424;-62
2021/03/02 11:38:28;;;;;;;16.33;6.35;;;14.80;55.30;;;;;;5021000;28;20045;-63
2021/03/02 11:40:57;;;;;;;15.18;6.03;;;15.00;55.20;;;;;;5021404;28;20042;-62
2021/03/02 11:43:23;;;;;;;15.35;5.93;;;15.20;54.40;;;;;;5024327;28;20052;-64
2021/03/02 11:45:50;;;;;;;12.90;5.18;;;15.20;54.00;;;;;;5025900;28;20050;-63
2021/03/02 11:48:17;;;;;;;13.93;6.13;;;15.30;53.60;;;;;;5016434;28;20497;-62
2021/03/02 11:50:56;;;;;;;14.73;5.95;;;15.40;53.50;;;;;;5021852;28;20056;-63
2021/03/02 11:53:23;;;;;;;17.67;7.47;;;15.50;54.20;;;;;;5014649;28;20057;-70
2021/03/02 11:55:50;;;;;;;19.52;7.40;;;15.20;52.60;;;;;;5022205;28;20050;-68
2021/03/02 11:58:16;;;;;;;14.77;6.03;;;15.20;53.40;;;;;;5023496;28;20079;-67
2021/03/02 12:00:43;;;;;;;17.63;6.07;;;15.40;52.00;;;;;;5026182;28;20042;-66
2021/03/02 12:03:22;;;;;;;15.15;5.53;;;15.50;52.90;;;;;;5016498;28;20069;-67
2021/03/02 12:05:50;;;;;;;16.05;6.05;;;15.70;52.20;;;;;;5026877;28;20588;-64
2021/03/02 12:08:19;;;;;;;15.98;6.32;;;15.80;51.80;;;;;;5025371;28;20515;-64
2021/03/02 12:10:46;;;;;;;15.57;6.47;;;16.10;52.20;;;;;;5027659;28;20042;-63
2021/03/02 12:13:13;;;;;;;19.70;7.40;;;16.30;51.60;;;;;;5028261;28;20049;-64
2021/03/02 12:15:41;;;;;;;14.00;5.72;;;16.40;50.30;;;;;;5026793;28;20057;-64
2021/03/02 12:18:08;;;;;;;13.38;5.28;;;16.30;50.20;;;;;;5025453;28;20037;-62
2021/03/02 12:20:35;;;;;;;12.30;5.43;;;16.40;50.20;;;;;;5024719;28;20076;-62
2021/03/02 12:23:02;;;;;;;11.45;5.30;;;16.50;49.10;;;;;;5022636;28;20064;-64
2021/03/02 12:25:28;;;;;;;11.68;4.90;;;16.70;49.70;;;;;;5019805;28;20099;-62
2021/03/02 12:27:56;;;;;;;16.20;6.85;;;17.00;48.10;;;;;;5020574;28;20050;-64
2021/03/02 12:30:24;;;;;;;16.33;5.50;;;17.20;48.40;;;;;;5025044;28;20404;-64
2021/03/02 12:32:50;;;;;;;9.55;3.75;;;17.50;45.40;;;;;;5025188;28;20056;-64
2021/03/02 12:35:17;;;;;;;13.13;5.20;;;17.70;43.60;;;;;;5025180;28;20045;-63
2021/03/02 12:37:44;;;;;;;10.55;3.90;;;17.90;44.30;;;;;;5022811;28;20132;-63
2021/03/02 12:40:15;;;;;;;10.75;4.35;;;18.00;43.50;;;;;;5024502;28;20064;-63
2021/03/02 12:42:41;;;;;;;10.40;5.13;;;18.30;43.30;;;;;;5025781;28;20061;-64
2021/03/02 12:45:09;;;;;;;11.85;4.22;;;18.70;42.90;;;;;;5017376;28;20037;-62
2021/03/02 12:47:35;;;;;;;13.45;4.68;;;19.20;41.90;;;;;;5022312;28;20496;-65
2021/03/02 12:50:07;;;;;;;14.85;5.20;;;19.40;41.10;;;;;;5044654;28;20051;-63
2021/03/02 12:52:37;;;;;;;10.43;4.28;;;19.40;41.00;;;;;;5028532;28;20053;-63